createdAt,value
2017-02-09T00:00:44.448Z,-10.83
2017-02-09T00:01:55.103Z,-10.83
2017-02-09T00:03:05.761Z,-10.93
2017-02-09T00:04:16.019Z,-10.9
2017-02-09T00:05:26.675Z,-10.8
2017-02-09T00:06:37.335Z,-10.88
2017-02-09T00:07:47.599Z,-10.87
2017-02-09T00:08:58.258Z,-10.92
2017-02-09T00:10:08.521Z,-10.85
2017-02-09T00:11:19.174Z,-10.92
2017-02-09T00:12:29.831Z,-10.9
2017-02-09T00:13:40.089Z,-10.92
2017-02-09T00:14:50.749Z,-10.9
2017-02-09T00:16:01.415Z,-10.96
2017-02-09T00:17:11.676Z,-10.9
2017-02-09T00:18:22.330Z,-10.92
2017-02-09T00:19:32.990Z,-10.83
2017-02-09T00:20:43.654Z,-10.9
2017-02-09T00:21:54.312Z,-10.85
2017-02-09T00:23:04.969Z,-10.83
2017-02-09T00:24:15.631Z,-10.85
2017-02-09T00:25:26.593Z,-10.81
2017-02-09T00:26:37.255Z,-10.8
2017-02-09T00:27:47.519Z,-10.8
2017-02-09T00:28:57.780Z,-10.8
2017-02-09T00:30:08.046Z,-10.8
2017-02-09T00:31:18.709Z,-10.8
2017-02-09T00:32:29.367Z,-10.78
2017-02-09T00:33:40.025Z,-10.81
2017-02-09T00:34:50.679Z,-10.88
2017-02-09T00:36:01.343Z,-10.83
2017-02-09T00:37:12.005Z,-10.78
2017-02-09T00:38:22.670Z,-10.78
2017-02-09T00:39:33.328Z,-10.85
2017-02-09T00:40:43.978Z,-10.88
2017-02-09T00:41:54.637Z,-10.83
2017-02-09T00:43:05.295Z,-10.8
2017-02-09T00:44:15.951Z,-10.83
2017-02-09T00:45:26.602Z,-10.81
2017-02-09T00:46:37.258Z,-10.83
2017-02-09T00:47:47.916Z,-10.78
2017-02-09T00:48:58.576Z,-10.85
2017-02-09T00:50:08.843Z,-10.85
2017-02-09T00:51:19.506Z,-10.85
2017-02-09T00:52:30.177Z,-10.88
2017-02-09T00:53:40.832Z,-10.85
2017-02-09T00:54:51.096Z,-10.81
2017-02-09T00:56:01.762Z,-10.85
2017-02-09T00:57:12.423Z,-10.87
2017-02-09T00:58:23.080Z,-10.87
2017-02-09T00:59:33.739Z,-10.92
2017-02-09T01:00:44.395Z,-10.9
2017-02-09T01:01:55.060Z,-10.87
2017-02-09T01:03:05.718Z,-10.9
2017-02-09T01:04:16.378Z,-10.85
2017-02-09T01:05:27.039Z,-10.88
2017-02-09T01:06:37.705Z,-10.88
2017-02-09T01:07:47.968Z,-10.92
2017-02-09T01:08:58.631Z,-10.93
2017-02-09T01:10:09.289Z,-10.87
2017-02-09T01:11:19.953Z,-10.85
2017-02-09T01:12:30.619Z,-10.85
2017-02-09T01:13:41.275Z,-10.92
2017-02-09T01:14:51.937Z,-10.95
2017-02-09T01:16:02.599Z,-10.81
2017-02-09T01:17:13.263Z,-10.83
2017-02-09T01:18:23.916Z,-10.85
2017-02-09T01:19:34.175Z,-10.87
2017-02-09T01:20:44.832Z,-10.85
2017-02-09T01:21:55.490Z,-10.92
2017-02-09T01:23:06.153Z,-10.9
2017-02-09T01:24:16.809Z,-10.93
2017-02-09T01:25:27.466Z,-10.9
2017-02-09T01:26:38.125Z,-10.9
2017-02-09T01:27:48.786Z,-10.96
2017-02-09T01:28:59.449Z,-10.92
2017-02-09T01:30:09.713Z,-10.92
2017-02-09T01:31:20.370Z,-10.95
2017-02-09T01:32:31.031Z,-10.88
2017-02-09T01:33:41.689Z,-10.97
2017-02-09T01:34:52.351Z,-11.02
2017-02-09T01:36:03.041Z,-11.03
2017-02-09T01:37:13.302Z,-10.99
2017-02-09T01:38:23.963Z,-10.92
2017-02-09T01:39:34.221Z,-10.97
2017-02-09T01:40:44.884Z,-10.96
2017-02-09T01:41:55.540Z,-10.99
2017-02-09T01:43:06.202Z,-11
2017-02-09T01:44:16.467Z,-11.03
2017-02-09T01:45:27.132Z,-10.97
2017-02-09T01:46:37.793Z,-10.95
2017-02-09T01:47:48.457Z,-11.02
2017-02-09T01:48:59.117Z,-11.02
2017-02-09T01:50:09.379Z,-10.93
2017-02-09T01:51:20.040Z,-10.99
2017-02-09T01:52:30.707Z,-10.96
2017-02-09T01:53:41.369Z,-11.03
2017-02-09T01:54:52.026Z,-10.9
2017-02-09T01:56:02.687Z,-10.93
2017-02-09T01:57:12.948Z,-10.96
2017-02-09T01:58:23.604Z,-11.03
2017-02-09T01:59:34.269Z,-10.99
2017-02-09T02:00:44.936Z,-11.05
2017-02-09T02:01:55.205Z,-11
2017-02-09T02:03:05.862Z,-10.99
2017-02-09T02:04:16.521Z,-11.1
2017-02-09T02:05:27.176Z,-11.06
2017-02-09T02:06:37.833Z,-11.07
2017-02-09T02:07:48.491Z,-11.03
2017-02-09T02:08:59.145Z,-11.03
2017-02-09T02:10:09.815Z,-11
2017-02-09T02:11:20.474Z,-11.1
2017-02-09T02:12:31.133Z,-11.14
2017-02-09T02:13:41.795Z,-11.07
2017-02-09T02:14:52.457Z,-11.07
2017-02-09T02:16:03.116Z,-11.11
2017-02-09T02:17:13.776Z,-11.1
2017-02-09T02:18:24.434Z,-11.06
2017-02-09T02:19:34.697Z,-11.14
2017-02-09T02:20:45.358Z,-11.02
2017-02-09T02:21:56.014Z,-11.13
2017-02-09T02:23:06.674Z,-11.07
2017-02-09T02:24:17.339Z,-11.17
2017-02-09T02:25:28.025Z,-11.05
2017-02-09T02:26:38.688Z,-11.1
2017-02-09T02:27:49.339Z,-11.13
2017-02-09T02:29:00.001Z,-11.17
2017-02-09T02:30:10.666Z,-11.14
2017-02-09T02:31:21.340Z,-11.21
2017-02-09T02:32:31.604Z,-11.13
2017-02-09T02:33:42.265Z,-11.06
2017-02-09T02:34:52.925Z,-11.13
2017-02-09T02:36:03.582Z,-11.17
2017-02-09T02:37:14.236Z,-11.17
2017-02-09T02:38:24.504Z,-11.11
2017-02-09T02:39:34.765Z,-11.18
2017-02-09T02:40:45.431Z,-11.17
2017-02-09T02:41:56.088Z,-11.16
2017-02-09T02:43:06.753Z,-11.17
2017-02-09T02:44:17.415Z,-11.26
2017-02-09T02:45:28.070Z,-11.17
2017-02-09T02:46:38.733Z,-11.37
2017-02-09T02:47:49.399Z,-11.34
2017-02-09T02:49:00.078Z,-11.37
2017-02-09T02:50:10.341Z,-11.39
2017-02-09T02:51:21.018Z,-11.34
2017-02-09T02:52:31.677Z,-11.39
2017-02-09T02:53:42.340Z,-11.37
2017-02-09T02:54:52.996Z,-11.35
2017-02-09T02:56:03.664Z,-11.41
2017-02-09T02:57:13.933Z,-11.38
2017-02-09T02:58:24.593Z,-11.44
2017-02-09T02:59:35.251Z,-11.35
2017-02-09T03:00:45.909Z,-11.41
2017-02-09T03:01:56.570Z,-11.41
2017-02-09T03:03:07.228Z,-11.42
2017-02-09T03:04:17.084Z,-11.39
2017-02-09T03:05:27.747Z,-11.48
2017-02-09T03:06:38.006Z,-11.45
2017-02-09T03:07:48.668Z,-11.49
2017-02-09T03:08:58.930Z,-11.5
2017-02-09T03:10:09.498Z,-11.49
2017-02-09T03:11:20.161Z,-11.52
2017-02-09T03:12:30.821Z,-11.53
2017-02-09T03:13:41.487Z,-11.5
2017-02-09T03:14:51.757Z,-11.56
2017-02-09T03:16:02.411Z,-11.56
2017-02-09T03:17:13.079Z,-11.48
2017-02-09T03:18:23.737Z,-11.55
2017-02-09T03:19:34.395Z,-11.58
2017-02-09T03:20:45.053Z,-11.53
2017-02-09T03:21:55.714Z,-11.52
2017-02-09T03:23:06.377Z,-11.58
2017-02-09T03:24:16.645Z,-11.55
2017-02-09T03:25:27.303Z,-11.58
2017-02-09T03:26:37.962Z,-11.56
2017-02-09T03:27:48.624Z,-11.48
2017-02-09T03:28:59.281Z,-11.53
2017-02-09T03:30:09.544Z,-11.59
2017-02-09T03:31:20.203Z,-11.53
2017-02-09T03:32:30.867Z,-11.44
2017-02-09T03:33:41.524Z,-11.45
2017-02-09T03:34:52.183Z,-11.55
2017-02-09T03:36:02.844Z,-11.52
2017-02-09T03:37:13.106Z,-11.37
2017-02-09T03:38:23.767Z,-11.5
2017-02-09T03:39:34.460Z,-11.49
2017-02-09T03:40:45.127Z,-11.49
2017-02-09T03:41:55.796Z,-11.42
2017-02-09T03:43:06.459Z,-11.39
2017-02-09T03:44:17.121Z,-11.48
2017-02-09T03:45:27.781Z,-11.45
2017-02-09T03:46:38.468Z,-11.49
2017-02-09T03:47:49.131Z,-11.49
2017-02-09T03:48:59.788Z,-11.42
2017-02-09T03:50:10.440Z,-11.49
2017-02-09T03:51:21.109Z,-11.44
2017-02-09T03:52:31.771Z,-11.45
2017-02-09T03:53:42.431Z,-11.53
2017-02-09T03:54:53.089Z,-11.56
2017-02-09T03:56:03.350Z,-11.53
2017-02-09T03:57:14.011Z,-11.49
2017-02-09T03:58:24.673Z,-11.55
2017-02-09T03:59:34.936Z,-11.53
2017-02-09T04:00:45.597Z,-11.49
2017-02-09T04:01:56.258Z,-11.52
2017-02-09T04:03:06.921Z,-11.62
2017-02-09T04:04:17.580Z,-11.53
2017-02-09T04:05:28.279Z,-11.6
2017-02-09T04:06:38.939Z,-11.62
2017-02-09T04:07:49.598Z,-11.58
2017-02-09T04:08:59.858Z,-11.59
2017-02-09T04:10:10.120Z,-11.6
2017-02-09T04:11:20.778Z,-11.62
2017-02-09T04:12:31.440Z,-11.68
2017-02-09T04:13:42.099Z,-11.73
2017-02-09T04:14:52.759Z,-11.74
2017-02-09T04:16:03.418Z,-11.58
2017-02-09T04:17:14.077Z,-11.6
2017-02-09T04:18:24.734Z,-11.68
2017-02-09T04:19:35.396Z,-11.77
2017-02-09T04:20:46.054Z,-11.68
2017-02-09T04:21:56.717Z,-11.63
2017-02-09T04:23:07.373Z,-11.71
2017-02-09T04:24:17.647Z,-11.8
2017-02-09T04:25:28.312Z,-11.76
2017-02-09T04:26:38.973Z,-11.77
2017-02-09T04:27:49.635Z,-11.73
2017-02-09T04:28:59.926Z,-11.73
2017-02-09T04:30:10.184Z,-11.84
2017-02-09T04:31:20.842Z,-11.81
2017-02-09T04:32:31.499Z,-11.7
2017-02-09T04:33:42.149Z,-11.8
2017-02-09T04:34:52.838Z,-11.84
2017-02-09T04:36:03.501Z,-11.85
2017-02-09T04:37:14.157Z,-11.81
2017-02-09T04:38:24.414Z,-11.89
2017-02-09T04:39:35.071Z,-11.81
2017-02-09T04:40:45.744Z,-11.92
2017-02-09T04:41:56.009Z,-11.89
2017-02-09T04:43:06.699Z,-11.94
2017-02-09T04:44:17.360Z,-11.87
2017-02-09T04:45:28.017Z,-11.84
2017-02-09T04:46:38.680Z,-11.84
2017-02-09T04:47:49.338Z,-11.87
2017-02-09T04:48:59.602Z,-11.95
2017-02-09T04:50:10.265Z,-11.87
2017-02-09T04:51:20.916Z,-11.94
2017-02-09T04:52:31.577Z,-11.78
2017-02-09T04:53:42.234Z,-11.81
2017-02-09T04:54:52.894Z,-11.77
2017-02-09T04:56:03.556Z,-11.92
2017-02-09T04:57:14.214Z,-11.8
2017-02-09T04:58:24.871Z,-11.88
2017-02-09T04:59:35.530Z,-11.78
2017-02-09T05:00:46.191Z,-11.84
2017-02-09T05:01:56.848Z,-11.63
2017-02-09T05:03:07.506Z,-11.85
2017-02-09T05:04:18.168Z,-11.81
2017-02-09T05:05:28.863Z,-11.8
2017-02-09T05:06:39.519Z,-11.97
2017-02-09T05:07:49.781Z,-11.88
2017-02-09T05:09:00.081Z,-11.92
2017-02-09T05:10:10.748Z,-11.97
2017-02-09T05:11:21.406Z,-11.94
2017-02-09T05:12:32.067Z,-11.91
2017-02-09T05:13:42.726Z,-11.91
2017-02-09T05:14:53.385Z,-11.89
2017-02-09T05:16:04.043Z,-11.94
2017-02-09T05:17:14.705Z,-11.95
2017-02-09T05:18:25.364Z,-11.97
2017-02-09T05:19:36.025Z,-11.94
2017-02-09T05:20:46.689Z,-11.74
2017-02-09T05:21:57.378Z,-11.85
2017-02-09T05:23:08.040Z,-11.81
2017-02-09T05:24:18.299Z,-11.87
2017-02-09T05:25:28.957Z,-11.91
2017-02-09T05:26:39.640Z,-11.85
2017-02-09T05:27:50.303Z,-11.8
2017-02-09T05:29:00.564Z,-11.68
2017-02-09T05:30:11.226Z,-11.74
2017-02-09T05:31:21.893Z,-11.76
2017-02-09T05:32:32.552Z,-11.67
2017-02-09T05:33:43.207Z,-11.68
2017-02-09T05:34:53.864Z,-11.7
2017-02-09T05:36:04.123Z,-11.74
2017-02-09T05:37:14.792Z,-11.66
2017-02-09T05:38:25.457Z,-11.81
2017-02-09T05:39:36.147Z,-11.59
2017-02-09T05:40:46.805Z,-11.74
2017-02-09T05:41:57.462Z,-11.58
2017-02-09T05:43:08.120Z,-11.6
2017-02-09T05:44:18.376Z,-11.71
2017-02-09T05:45:29.068Z,-11.67
2017-02-09T05:46:39.724Z,-11.67
2017-02-09T05:47:50.427Z,-11.63
2017-02-09T05:49:01.095Z,-11.7
2017-02-09T05:50:11.760Z,-11.56
2017-02-09T05:51:22.421Z,-11.67
2017-02-09T05:52:33.083Z,-11.59
2017-02-09T05:53:43.743Z,-11.6
2017-02-09T05:54:54.400Z,-11.63
2017-02-09T05:56:04.664Z,-11.6
2017-02-09T05:57:15.317Z,-11.59
2017-02-09T05:58:25.968Z,-11.56
2017-02-09T05:59:36.630Z,-11.63
2017-02-09T06:00:47.300Z,-11.56
2017-02-09T06:01:57.963Z,-11.66
2017-02-09T06:03:08.617Z,-11.55
2017-02-09T06:04:18.899Z,-11.59
2017-02-09T06:05:29.555Z,-11.55
2017-02-09T06:06:40.213Z,-11.62
2017-02-09T06:07:50.872Z,-11.59
2017-02-09T06:09:01.135Z,-11.58
2017-02-09T06:10:11.393Z,-11.59
2017-02-09T06:11:22.053Z,-11.62
2017-02-09T06:12:32.721Z,-11.67
2017-02-09T06:13:43.378Z,-11.58
2017-02-09T06:14:54.037Z,-11.58
2017-02-09T06:16:04.699Z,-11.62
2017-02-09T06:17:15.361Z,-11.59
2017-02-09T06:18:25.634Z,-11.59
2017-02-09T06:19:36.293Z,-11.66
2017-02-09T06:20:46.952Z,-11.59
2017-02-09T06:21:57.609Z,-11.62
2017-02-09T06:23:08.270Z,-11.53
2017-02-09T06:24:18.939Z,-11.6
2017-02-09T06:25:29.625Z,-11.55
2017-02-09T06:26:40.280Z,-11.49
2017-02-09T06:27:50.939Z,-11.62
2017-02-09T06:29:01.598Z,-11.58
2017-02-09T06:30:12.277Z,-11.58
2017-02-09T06:31:22.933Z,-11.56
2017-02-09T06:32:33.586Z,-11.45
2017-02-09T06:33:44.287Z,-11.53
2017-02-09T06:34:54.943Z,-11.42
2017-02-09T06:36:05.600Z,-11.49
2017-02-09T06:37:15.860Z,-11.48
2017-02-09T06:38:26.551Z,-11.53
2017-02-09T06:39:37.218Z,-11.53
2017-02-09T06:40:47.481Z,-11.52
2017-02-09T06:41:58.141Z,-11.53
2017-02-09T06:43:08.799Z,-11.53
2017-02-09T06:44:19.455Z,-11.58
2017-02-09T06:45:30.113Z,-11.52
2017-02-09T06:46:40.779Z,-11.58
2017-02-09T06:47:51.448Z,-11.5
2017-02-09T06:49:02.110Z,-11.53
2017-02-09T06:50:12.796Z,-11.58
2017-02-09T06:51:23.475Z,-11.52
2017-02-09T06:52:34.135Z,-11.56
2017-02-09T06:53:44.794Z,-11.53
2017-02-09T06:54:55.451Z,-11.55
2017-02-09T06:56:06.127Z,-11.42
2017-02-09T06:57:16.788Z,-11.52
2017-02-09T06:58:27.443Z,-11.53
2017-02-09T06:59:37.736Z,-11.56
2017-02-09T07:00:48.393Z,-11.53
2017-02-09T07:01:59.051Z,-11.58
2017-02-09T07:03:09.709Z,-11.52
2017-02-09T07:04:20.362Z,-11.5
2017-02-09T07:05:31.021Z,-11.49
2017-02-09T07:06:41.677Z,-11.5
2017-02-09T07:07:52.336Z,-11.42
2017-02-09T07:09:02.991Z,-11.52
2017-02-09T07:10:13.678Z,-11.52
2017-02-09T07:11:24.339Z,-11.59
2017-02-09T07:12:34.997Z,-11.55
2017-02-09T07:13:45.656Z,-11.58
2017-02-09T07:14:56.314Z,-11.63
2017-02-09T07:16:06.972Z,-11.55
2017-02-09T07:17:17.628Z,-11.67
2017-02-09T07:18:28.285Z,-11.58
2017-02-09T07:19:38.945Z,-11.63
2017-02-09T07:20:49.605Z,-11.59
2017-02-09T07:22:00.261Z,-11.63
2017-02-09T07:23:10.920Z,-11.6
2017-02-09T07:24:21.612Z,-11.77
2017-02-09T07:25:32.264Z,-11.7
2017-02-09T07:26:42.923Z,-11.7
2017-02-09T07:27:53.581Z,-11.63
2017-02-09T07:29:03.844Z,-11.71
2017-02-09T07:30:14.497Z,-11.78
2017-02-09T07:31:25.153Z,-11.77
2017-02-09T07:32:35.816Z,-11.76
2017-02-09T07:33:46.475Z,-11.76
2017-02-09T07:34:57.138Z,-11.8
2017-02-09T07:36:07.404Z,-11.74
2017-02-09T07:37:17.673Z,-11.78
2017-02-09T07:38:28.338Z,-11.67
2017-02-09T07:39:38.998Z,-11.84
2017-02-09T07:40:49.655Z,-11.8
2017-02-09T07:42:00.313Z,-11.77
2017-02-09T07:43:10.969Z,-11.8
2017-02-09T07:44:21.633Z,-11.7
2017-02-09T07:45:32.328Z,-11.8
2017-02-09T07:46:42.986Z,-11.62
2017-02-09T07:47:53.648Z,-11.62
2017-02-09T07:49:04.309Z,-11.63
2017-02-09T07:50:14.965Z,-11.7
2017-02-09T07:51:25.617Z,-11.7
2017-02-09T07:52:36.273Z,-11.6
2017-02-09T07:53:46.928Z,-11.67
2017-02-09T07:54:57.585Z,-11.59
2017-02-09T07:56:08.240Z,-11.67
2017-02-09T07:57:18.898Z,-11.58
2017-02-09T07:58:29.558Z,-11.52
2017-02-09T07:59:40.228Z,-11.53
2017-02-09T08:00:50.889Z,-11.55
2017-02-09T08:02:01.152Z,-11.52
2017-02-09T08:03:11.816Z,-11.59
2017-02-09T08:04:22.476Z,-11.53
2017-02-09T08:05:33.133Z,-11.56
2017-02-09T08:06:43.401Z,-11.53
2017-02-09T08:07:54.061Z,-11.49
2017-02-09T08:09:04.329Z,-11.5
2017-02-09T08:10:14.191Z,-11.49
2017-02-09T08:11:24.851Z,-11.41
2017-02-09T08:12:35.116Z,-11.52
2017-02-09T08:13:45.775Z,-11.48
2017-02-09T08:14:56.429Z,-11.48
2017-02-09T08:16:07.091Z,-11.48
2017-02-09T08:17:17.762Z,-11.41
2017-02-09T08:18:28.421Z,-11.48
2017-02-09T08:19:39.074Z,-11.42
2017-02-09T08:20:49.724Z,-11.45
2017-02-09T08:22:00.383Z,-11.49
2017-02-09T08:23:11.051Z,-11.44
2017-02-09T08:24:21.706Z,-11.48
2017-02-09T08:25:32.359Z,-11.37
2017-02-09T08:26:43.019Z,-11.38
2017-02-09T08:27:53.677Z,-11.41
2017-02-09T08:29:04.353Z,-11.39
2017-02-09T08:30:14.617Z,-11.41
2017-02-09T08:31:25.274Z,-11.41
2017-02-09T08:32:35.934Z,-11.42
2017-02-09T08:33:46.589Z,-11.44
2017-02-09T08:34:57.245Z,-11.35
2017-02-09T08:36:07.522Z,-11.41
2017-02-09T08:37:17.788Z,-11.42
2017-02-09T08:38:28.449Z,-11.49
2017-02-09T08:39:39.108Z,-11.32
2017-02-09T08:40:49.781Z,-11.38
2017-02-09T08:42:00.441Z,-11.38
2017-02-09T08:43:10.308Z,-11.31
2017-02-09T08:44:20.571Z,-11.28
2017-02-09T08:45:30.839Z,-11.28
2017-02-09T08:46:41.535Z,-11.2
2017-02-09T08:47:52.204Z,-11.26
2017-02-09T08:49:02.868Z,-11.14
2017-02-09T08:50:13.126Z,-11.1
2017-02-09T08:51:23.013Z,-11.14
2017-02-09T08:52:33.670Z,-11.06
2017-02-09T08:53:44.331Z,-11
2017-02-09T08:54:54.997Z,-11.02
2017-02-09T08:56:05.653Z,-10.95
2017-02-09T08:57:16.315Z,-11
2017-02-09T08:58:26.982Z,-10.92
2017-02-09T08:59:37.680Z,-10.93
2017-02-09T09:00:48.343Z,-11
2017-02-09T09:01:58.605Z,-11
2017-02-09T09:03:08.475Z,-11.05
2017-02-09T09:04:19.141Z,-10.93
2017-02-09T09:05:29.797Z,-10.9
2017-02-09T09:06:40.458Z,-10.85
2017-02-09T09:07:51.117Z,-10.9
2017-02-09T09:09:01.781Z,-10.85
2017-02-09T09:10:12.046Z,-10.8
2017-02-09T09:11:22.706Z,-10.88
2017-02-09T09:12:33.360Z,-10.76
2017-02-09T09:13:44.023Z,-10.74
2017-02-09T09:14:53.889Z,-10.76
2017-02-09T09:16:04.547Z,-10.71
2017-02-09T09:17:14.812Z,-10.73
2017-02-09T09:18:24.674Z,-10.66
2017-02-09T09:19:35.333Z,-10.66
2017-02-09T09:20:45.600Z,-10.63
2017-02-09T09:21:56.258Z,-10.65
2017-02-09T09:23:06.926Z,-10.57
2017-02-09T09:24:17.591Z,-10.57
2017-02-09T09:25:27.861Z,-10.62
2017-02-09T09:26:38.128Z,-10.6
2017-02-09T09:27:48.391Z,-10.69
2017-02-09T09:28:58.655Z,-10.6
2017-02-09T09:30:09.322Z,-10.59
2017-02-09T09:31:18.793Z,-10.66
2017-02-09T09:32:29.458Z,-10.53
2017-02-09T09:33:40.124Z,-10.48
2017-02-09T09:34:50.786Z,-10.56
2017-02-09T09:36:01.446Z,-10.55
2017-02-09T09:37:12.107Z,-10.41
2017-02-09T09:38:22.774Z,-10.45
2017-02-09T09:39:33.433Z,-10.35
2017-02-09T09:40:43.699Z,-10.38
2017-02-09T09:41:54.361Z,-10.25
2017-02-09T09:43:05.018Z,-10.3
2017-02-09T09:44:15.716Z,-10.3
2017-02-09T09:45:25.585Z,-10.28
2017-02-09T09:46:36.250Z,-10.27
2017-02-09T09:47:46.943Z,-10.25
2017-02-09T09:48:57.613Z,-10.23
2017-02-09T09:50:07.877Z,-10.1
2017-02-09T09:51:18.541Z,-10.07
2017-02-09T09:52:29.204Z,-10.06
2017-02-09T09:53:39.867Z,-10.15
2017-02-09T09:54:50.529Z,-10.1
2017-02-09T09:56:01.539Z,-10.14
2017-02-09T09:57:11.802Z,-10.09
2017-02-09T09:58:22.470Z,-10.14
2017-02-09T09:59:33.128Z,-10.09
2017-02-09T10:00:43.789Z,-10.05
2017-02-09T10:01:54.452Z,-10.14
2017-02-09T10:03:05.110Z,-10.17
2017-02-09T10:04:15.375Z,-10.1
2017-02-09T10:05:26.062Z,-10.06
2017-02-09T10:06:36.721Z,-10.17
2017-02-09T10:07:47.393Z,-10.07
2017-02-09T10:08:58.052Z,-10.1
2017-02-09T10:10:08.712Z,-10.07
2017-02-09T10:11:18.972Z,-10.15
2017-02-09T10:12:28.836Z,-10.05
2017-02-09T10:13:39.496Z,-10.17
2017-02-09T10:14:50.160Z,-10.17
2017-02-09T10:16:00.827Z,-10.17
2017-02-09T10:17:11.487Z,-10.03
2017-02-09T10:18:21.750Z,-10.05
2017-02-09T10:19:32.414Z,-10.03
2017-02-09T10:20:43.080Z,-10.05
2017-02-09T10:21:53.739Z,-9.96
2017-02-09T10:23:04.005Z,-10.03
2017-02-09T10:24:14.672Z,-10.03
2017-02-09T10:25:25.332Z,-10.02
2017-02-09T10:26:35.599Z,-10.06
2017-02-09T10:27:45.865Z,-10.09
2017-02-09T10:28:56.525Z,-10.03
2017-02-09T10:30:07.190Z,-10.09
2017-02-09T10:31:17.451Z,-10.06
2017-02-09T10:32:28.111Z,-10.05
2017-02-09T10:33:38.774Z,-10.07
2017-02-09T10:34:49.038Z,-10.12
2017-02-09T10:35:59.306Z,-10.05
2017-02-09T10:37:09.963Z,-10.12
2017-02-09T10:38:20.227Z,-10.12
2017-02-09T10:39:30.884Z,-10.12
2017-02-09T10:40:41.544Z,-10.07
2017-02-09T10:41:52.214Z,-10.02
2017-02-09T10:43:02.872Z,-10.09
2017-02-09T10:44:13.537Z,-10.05
2017-02-09T10:45:24.195Z,-10.03
2017-02-09T10:46:34.859Z,-10.05
2017-02-09T10:47:45.517Z,-10.05
2017-02-09T10:48:56.177Z,-10.03
2017-02-09T10:50:06.842Z,-10.09
2017-02-09T10:51:17.503Z,-10.02
2017-02-09T10:52:28.165Z,-10
2017-02-09T10:53:38.826Z,-10.03
2017-02-09T10:54:49.486Z,-10.05
2017-02-09T10:56:00.151Z,-10
2017-02-09T10:57:10.820Z,-9.88
2017-02-09T10:58:21.479Z,-10
2017-02-09T10:59:32.143Z,-9.99
2017-02-09T11:00:42.804Z,-10.06
2017-02-09T11:01:53.462Z,-9.88
2017-02-09T11:03:04.120Z,-9.92
2017-02-09T11:04:13.981Z,-9.85
2017-02-09T11:05:24.244Z,-9.86
2017-02-09T11:06:34.898Z,-9.73
2017-02-09T11:07:45.584Z,-9.85
2017-02-09T11:08:56.243Z,-9.82
2017-02-09T11:10:06.930Z,-9.86
2017-02-09T11:11:17.592Z,-9.79
2017-02-09T11:12:28.259Z,-9.81
2017-02-09T11:13:38.525Z,-9.73
2017-02-09T11:14:49.189Z,-9.74
2017-02-09T11:15:59.848Z,-9.71
2017-02-09T11:17:10.110Z,-9.65
2017-02-09T11:18:20.372Z,-9.64
2017-02-09T11:19:31.040Z,-9.68
2017-02-09T11:20:41.701Z,-9.61
2017-02-09T11:21:51.972Z,-9.55
2017-02-09T11:23:02.239Z,-9.6
2017-02-09T11:24:12.901Z,-9.61
2017-02-09T11:25:23.570Z,-9.64
2017-02-09T11:26:34.233Z,-9.56
2017-02-09T11:27:44.108Z,-9.61
2017-02-09T11:28:54.774Z,-9.64
2017-02-09T11:30:05.439Z,-9.46
2017-02-09T11:31:16.148Z,-9.53
2017-02-09T11:32:26.814Z,-9.43
2017-02-09T11:33:37.481Z,-9.47
2017-02-09T11:34:48.151Z,-9.46
2017-02-09T11:35:58.817Z,-9.43
2017-02-09T11:37:09.482Z,-9.55
2017-02-09T11:38:19.744Z,-9.53
2017-02-09T11:39:30.011Z,-9.49
2017-02-09T11:40:40.675Z,-9.41
2017-02-09T11:41:51.339Z,-9.41
2017-02-09T11:43:02.003Z,-9.41
2017-02-09T11:44:12.669Z,-9.41
2017-02-09T11:45:22.933Z,-9.37
2017-02-09T11:46:33.596Z,-9.34
2017-02-09T11:47:44.267Z,-9.37
2017-02-09T11:48:54.929Z,-9.41
2017-02-09T11:50:05.589Z,-9.41
2017-02-09T11:51:15.861Z,-9.33
2017-02-09T11:52:26.520Z,-9.39
2017-02-09T11:53:37.178Z,-9.31
2017-02-09T11:54:47.834Z,-9.28
2017-02-09T11:55:58.496Z,-9.39
2017-02-09T11:57:09.179Z,-9.33
2017-02-09T11:58:19.839Z,-9.3
2017-02-09T11:59:30.503Z,-9.3
2017-02-09T12:00:41.167Z,-9.33
2017-02-09T12:01:51.829Z,-9.31
2017-02-09T12:03:02.490Z,-9.27
2017-02-09T12:04:12.760Z,-9.2
2017-02-09T12:05:23.420Z,-9.3
2017-02-09T12:06:34.083Z,-9.27
2017-02-09T12:07:44.373Z,-9.23
2017-02-09T12:08:55.036Z,-9.09
2017-02-09T12:10:05.305Z,-9.07
2017-02-09T12:11:15.572Z,-9.06
2017-02-09T12:12:26.234Z,-9.06
2017-02-09T12:13:36.897Z,-9.03
2017-02-09T12:14:47.556Z,-9.03
2017-02-09T12:15:58.216Z,-9.04
2017-02-09T12:17:08.886Z,-8.96
2017-02-09T12:18:19.545Z,-8.99
2017-02-09T12:19:30.212Z,-8.99
2017-02-09T12:20:40.876Z,-9.04
2017-02-09T12:21:51.540Z,-8.94
2017-02-09T12:23:02.198Z,-9.04
2017-02-09T12:24:12.859Z,-8.92
2017-02-09T12:25:23.124Z,-8.89
2017-02-09T12:26:33.780Z,-9.04
2017-02-09T12:27:44.448Z,-8.92
2017-02-09T12:28:54.721Z,-8.94
2017-02-09T12:30:05.388Z,-8.99
2017-02-09T12:31:15.654Z,-8.86
2017-02-09T12:32:25.920Z,-8.88
2017-02-09T12:33:36.599Z,-8.71
2017-02-09T12:34:47.264Z,-8.78
2017-02-09T12:35:57.928Z,-8.82
2017-02-09T12:37:08.596Z,-8.67
2017-02-09T12:38:18.856Z,-8.73
2017-02-09T12:39:29.514Z,-8.67
2017-02-09T12:40:39.777Z,-8.67
2017-02-09T12:41:50.434Z,-8.52
2017-02-09T12:43:01.092Z,-8.47
2017-02-09T12:44:11.354Z,-8.38
2017-02-09T12:45:22.014Z,-8.36
2017-02-09T12:46:32.671Z,-8.39
2017-02-09T12:47:43.328Z,-8.42
2017-02-09T12:48:53.993Z,-8.52
2017-02-09T12:50:04.662Z,-8.57
2017-02-09T12:51:14.532Z,-8.54
2017-02-09T12:52:25.204Z,-8.59
2017-02-09T12:53:35.864Z,-8.56
2017-02-09T12:54:46.530Z,-8.6
2017-02-09T12:55:56.794Z,-8.59
2017-02-09T12:57:07.057Z,-8.6
2017-02-09T12:58:17.319Z,-8.53
2017-02-09T12:59:27.984Z,-8.53
2017-02-09T13:00:38.662Z,-8.5
2017-02-09T13:01:49.359Z,-8.49
2017-02-09T13:02:59.627Z,-8.42
2017-02-09T13:04:10.300Z,-8.38
2017-02-09T13:05:20.968Z,-8.44
2017-02-09T13:06:31.635Z,-8.44
2017-02-09T13:07:42.300Z,-8.42
2017-02-09T13:08:52.961Z,-8.42
2017-02-09T13:10:03.622Z,-8.47
2017-02-09T13:11:13.887Z,-8.46
2017-02-09T13:12:24.561Z,-8.42
2017-02-09T13:13:35.221Z,-8.47
2017-02-09T13:14:45.504Z,-8.41
2017-02-09T13:15:56.161Z,-8.38
2017-02-09T13:17:06.826Z,-8.46
2017-02-09T13:18:17.499Z,-8.46
2017-02-09T13:19:28.161Z,-8.46
2017-02-09T13:20:38.432Z,-8.49
2017-02-09T13:21:49.102Z,-8.49
2017-02-09T13:22:59.372Z,-8.53
2017-02-09T13:24:09.635Z,-8.47
2017-02-09T13:25:20.308Z,-8.47
2017-02-09T13:26:30.967Z,-8.46
2017-02-09T13:27:41.625Z,-8.44
2017-02-09T13:28:52.286Z,-8.41
2017-02-09T13:30:02.950Z,-8.44
2017-02-09T13:31:13.219Z,-8.36
2017-02-09T13:32:23.881Z,-8.38
2017-02-09T13:33:34.567Z,-8.39
2017-02-09T13:34:44.834Z,-8.35
2017-02-09T13:35:55.502Z,-8.38
2017-02-09T13:37:06.186Z,-8.36
2017-02-09T13:38:16.456Z,-8.23
2017-02-09T13:39:27.121Z,-8.21
2017-02-09T13:40:37.783Z,-8.17
2017-02-09T13:41:48.472Z,-8.07
2017-02-09T13:42:59.137Z,-8.1
2017-02-09T13:44:09.803Z,-8.1
2017-02-09T13:45:20.070Z,-8.07
2017-02-09T13:46:30.731Z,-8.1
2017-02-09T13:47:41.391Z,-8.07
2017-02-09T13:48:51.669Z,-8.1
2017-02-09T13:50:02.328Z,-8.13
2017-02-09T13:51:12.591Z,-8.13
2017-02-09T13:52:22.855Z,-8.11
2017-02-09T13:53:33.508Z,-8.1
2017-02-09T13:54:43.773Z,-8.28
2017-02-09T13:55:54.440Z,-8.21
2017-02-09T13:57:05.123Z,-8.34
2017-02-09T13:58:15.819Z,-8.39
2017-02-09T13:59:26.083Z,-8.46
2017-02-09T14:00:36.745Z,-8.5
2017-02-09T14:01:47.410Z,-8.6
2017-02-09T14:02:57.689Z,-8.57
2017-02-09T14:04:07.958Z,-8.65
2017-02-09T14:05:18.224Z,-8.6
2017-02-09T14:06:28.491Z,-8.64
2017-02-09T14:07:39.153Z,-8.59
2017-02-09T14:08:49.418Z,-8.62
2017-02-09T14:10:00.087Z,-8.53
2017-02-09T14:11:10.758Z,-8.6
2017-02-09T14:12:21.424Z,-8.6
2017-02-09T14:13:32.093Z,-8.57
2017-02-09T14:14:42.748Z,-8.57
2017-02-09T14:15:53.408Z,-8.6
2017-02-09T14:17:04.065Z,-8.56
2017-02-09T14:18:14.332Z,-8.57
2017-02-09T14:19:24.992Z,-8.49
2017-02-09T14:20:35.655Z,-8.56
2017-02-09T14:21:46.321Z,-8.52
2017-02-09T14:22:56.621Z,-8.47
2017-02-09T14:24:07.287Z,-8.5
2017-02-09T14:25:17.945Z,-8.52
2017-02-09T14:26:28.611Z,-8.54
2017-02-09T14:27:39.272Z,-8.44
2017-02-09T14:28:49.938Z,-8.54
2017-02-09T14:30:00.617Z,-8.44
2017-02-09T14:31:11.277Z,-8.47
2017-02-09T14:32:21.542Z,-8.49
2017-02-09T14:33:32.211Z,-8.47
2017-02-09T14:34:42.876Z,-8.44
2017-02-09T14:35:53.571Z,-8.47
2017-02-09T14:37:04.232Z,-8.52
2017-02-09T14:38:14.923Z,-8.49
2017-02-09T14:39:25.583Z,-8.42
2017-02-09T14:40:36.243Z,-8.41
2017-02-09T14:41:46.907Z,-8.34
2017-02-09T14:42:57.571Z,-8.42
2017-02-09T14:44:07.840Z,-8.41
2017-02-09T14:45:18.502Z,-8.34
2017-02-09T14:46:28.768Z,-8.26
2017-02-09T14:47:39.462Z,-8.24
2017-02-09T14:48:50.159Z,-8.28
2017-02-09T14:50:00.821Z,-8.32
2017-02-09T14:51:10.687Z,-8.29
2017-02-09T14:52:21.359Z,-8.38